createdAt,value
2022-11-29T00:01:48.326Z,2.83
2022-11-29T00:04:17.354Z,2.63
2022-11-29T00:06:46.848Z,4.00
2022-11-29T00:09:15.957Z,2.40
2022-11-29T00:12:04.799Z,2.70
2022-11-29T00:14:35.759Z,3.20
2022-11-29T00:17:04.899Z,2.73
2022-11-29T00:19:34.292Z,2.77
2022-11-29T00:22:03.875Z,2.87
2022-11-29T00:24:39.092Z,3.23
2022-11-29T00:27:14.758Z,2.70
2022-11-29T00:30:06.486Z,3.00
2022-11-29T00:32:37.323Z,3.13
2022-11-29T00:35:09.916Z,2.10
2022-11-29T00:37:39.511Z,2.80
2022-11-29T00:40:09.939Z,2.67
2022-11-29T00:42:38.843Z,2.50
2022-11-29T00:45:10.588Z,3.23
2022-11-29T00:47:40.183Z,2.93
2022-11-29T00:50:09.805Z,2.87
2022-11-29T00:52:47.812Z,2.60
2022-11-29T00:55:16.805Z,3.20
2022-11-29T00:57:45.799Z,3.30
2022-11-29T01:00:17.664Z,2.93
2022-11-29T01:02:47.124Z,3.07
2022-11-29T01:05:16.063Z,2.70
2022-11-29T01:07:45.343Z,2.10
2022-11-29T01:10:14.460Z,2.80
2022-11-29T01:12:43.246Z,3.03
2022-11-29T01:15:13.059Z,2.70
2022-11-29T01:17:43.491Z,3.30
2022-11-29T01:20:14.332Z,3.17
2022-11-29T01:22:43.627Z,3.57
2022-11-29T01:25:14.464Z,3.07
2022-11-29T01:27:43.766Z,2.90
2022-11-29T01:30:16.033Z,2.80
2022-11-29T01:32:49.333Z,3.47
2022-11-29T01:35:18.842Z,2.97
2022-11-29T01:37:47.832Z,2.80
2022-11-29T01:40:16.911Z,3.23
2022-11-29T01:42:46.108Z,2.93
2022-11-29T01:45:23.929Z,4.53
2022-11-29T01:47:56.284Z,3.27
2022-11-29T01:50:25.686Z,2.77
2022-11-29T01:52:54.597Z,3.20
2022-11-29T01:55:23.796Z,3.00
2022-11-29T01:57:53.017Z,3.10
2022-11-29T02:00:22.454Z,3.13
2022-11-29T02:02:57.837Z,3.03
2022-11-29T02:05:27.116Z,3.00
2022-11-29T02:07:57.854Z,2.90
2022-11-29T02:10:34.249Z,3.17
2022-11-29T02:13:10.921Z,2.73
2022-11-29T02:15:44.769Z,4.23
2022-11-29T02:18:16.541Z,3.23
2022-11-29T02:21:53.665Z,2.67
2022-11-29T02:24:46.318Z,3.00
2022-11-29T02:27:48.450Z,3.10
2022-11-29T02:30:22.422Z,3.40
2022-11-29T02:33:28.271Z,2.90
2022-11-29T02:36:25.634Z,2.80
2022-11-29T02:39:24.118Z,2.77
2022-11-29T02:42:55.604Z,3.60
2022-11-29T02:45:46.437Z,3.07
2022-11-29T02:48:30.532Z,2.77
2022-11-29T02:51:03.097Z,3.60
2022-11-29T02:53:37.124Z,2.87
2022-11-29T02:56:11.830Z,2.50
2022-11-29T02:58:46.988Z,2.63
2022-11-29T03:01:19.908Z,2.97
2022-11-29T03:03:52.433Z,2.50
2022-11-29T03:06:28.820Z,2.90
2022-11-29T03:09:03.945Z,3.13
2022-11-29T03:11:39.928Z,3.17
2022-11-29T03:14:16.281Z,3.30
2022-11-29T03:16:48.962Z,3.10
2022-11-29T03:19:31.268Z,2.90
2022-11-29T03:22:09.682Z,2.80
2022-11-29T03:24:45.789Z,2.53
2022-11-29T03:27:18.935Z,3.00
2022-11-29T03:29:52.642Z,2.70
2022-11-29T03:32:26.792Z,2.70
2022-11-29T03:35:01.614Z,3.20
2022-11-29T03:37:38.707Z,2.90
2022-11-29T03:40:11.660Z,3.13
2022-11-29T03:42:45.983Z,3.73
2022-11-29T03:45:22.326Z,2.60
2022-11-29T03:47:58.302Z,3.43
2022-11-29T03:50:30.667Z,3.23
2022-11-29T03:53:05.711Z,2.97
2022-11-29T03:55:59.590Z,3.10
2022-11-29T03:58:47.638Z,3.23
2022-11-29T04:02:07.089Z,2.57
2022-11-29T04:05:23.433Z,2.97
2022-11-29T04:08:18.871Z,2.73
2022-11-29T04:11:47.362Z,3.20
2022-11-29T04:14:31.771Z,2.57
2022-11-29T04:17:34.249Z,3.20
2022-11-29T04:20:44.194Z,2.70
2022-11-29T04:23:39.980Z,2.77
2022-11-29T04:26:38.256Z,3.10
2022-11-29T04:29:21.741Z,3.13
2022-11-29T04:32:05.279Z,3.20
2022-11-29T04:35:09.554Z,3.40
2022-11-29T04:38:05.995Z,3.00
2022-11-29T04:40:49.879Z,2.83
2022-11-29T04:43:37.307Z,2.83
2022-11-29T04:46:28.559Z,2.93
2022-11-29T04:49:16.924Z,3.20
2022-11-29T04:52:10.953Z,2.93
2022-11-29T04:54:42.848Z,2.90
2022-11-29T04:57:19.079Z,3.30
2022-11-29T04:59:53.686Z,3.03
2022-11-29T05:02:34.093Z,2.63
2022-11-29T05:05:09.407Z,2.90
2022-11-29T05:07:45.046Z,2.80
2022-11-29T05:10:32.073Z,2.57
2022-11-29T05:13:07.625Z,2.80
2022-11-29T05:16:12.847Z,2.80
2022-11-29T05:18:59.987Z,2.63
2022-11-29T05:21:39.222Z,2.97
2022-11-29T05:24:19.453Z,2.70
2022-11-29T05:26:53.286Z,3.00
2022-11-29T05:29:27.491Z,2.37
2022-11-29T05:32:01.106Z,2.57
2022-11-29T05:34:38.600Z,2.50
2022-11-29T05:37:19.574Z,3.50
2022-11-29T05:39:58.263Z,2.53
2022-11-29T05:42:57.553Z,3.00
2022-11-29T05:45:28.832Z,2.80
2022-11-29T05:48:03.474Z,3.23
2022-11-29T05:50:37.080Z,2.80
2022-11-29T05:53:17.826Z,2.70
2022-11-29T05:55:53.397Z,2.80
2022-11-29T05:58:30.700Z,3.00
2022-11-29T06:01:03.262Z,3.20
2022-11-29T06:03:37.050Z,3.47
2022-11-29T06:06:14.844Z,3.20
2022-11-29T06:08:48.164Z,2.93
2022-11-29T06:11:19.819Z,2.73
2022-11-29T06:13:56.805Z,2.80
2022-11-29T06:16:44.133Z,2.73
2022-11-29T06:19:34.012Z,2.40
2022-11-29T06:22:21.235Z,3.20
2022-11-29T06:25:02.515Z,3.30
2022-11-29T06:27:48.709Z,2.50
2022-11-29T06:30:21.094Z,3.00
2022-11-29T06:32:55.304Z,3.23
2022-11-29T06:35:40.682Z,3.30
2022-11-29T06:38:17.747Z,3.10
2022-11-29T06:40:47.307Z,3.63
2022-11-29T06:43:17.499Z,3.20
2022-11-29T06:45:50.689Z,3.07
2022-11-29T06:48:23.779Z,3.37
2022-11-29T06:51:00.659Z,3.60
2022-11-29T06:53:39.380Z,3.40
2022-11-29T06:56:17.295Z,2.83
2022-11-29T06:58:53.034Z,3.30
2022-11-29T07:01:30.939Z,4.20
2022-11-29T07:04:20.795Z,3.23
2022-11-29T07:06:50.229Z,3.33
2022-11-29T07:09:22.600Z,3.23
2022-11-29T07:11:52.005Z,3.63
2022-11-29T07:14:21.731Z,3.40
2022-11-29T07:16:59.501Z,3.10
2022-11-29T07:19:37.623Z,4.07
2022-11-29T07:22:10.498Z,3.53
2022-11-29T07:24:52.509Z,3.90
2022-11-29T07:27:24.166Z,3.87
2022-11-29T07:30:12.413Z,3.63
2022-11-29T07:32:55.895Z,3.97
2022-11-29T07:35:41.437Z,3.93
2022-11-29T07:38:15.441Z,4.40
2022-11-29T07:40:53.298Z,3.47
2022-11-29T07:43:33.680Z,4.47
2022-11-29T07:46:02.598Z,4.00
2022-11-29T07:48:31.690Z,3.87
2022-11-29T07:51:02.183Z,3.83
2022-11-29T07:53:31.317Z,3.77
2022-11-29T07:56:20.280Z,3.90
2022-11-29T07:58:49.526Z,3.60
2022-11-29T08:01:18.462Z,3.33
2022-11-29T08:03:57.196Z,3.37
2022-11-29T08:06:31.556Z,4.00
2022-11-29T08:09:00.917Z,3.80
2022-11-29T08:11:31.369Z,3.23
2022-11-29T08:14:00.543Z,3.80
2022-11-29T08:16:29.619Z,4.20
2022-11-29T08:18:58.842Z,2.97
2022-11-29T08:21:27.946Z,3.40
2022-11-29T08:23:59.494Z,3.80
2022-11-29T08:26:31.688Z,3.50
2022-11-29T08:29:02.602Z,2.77
2022-11-29T08:31:34.550Z,3.80
2022-11-29T08:34:07.044Z,3.20
2022-11-29T08:36:36.505Z,3.80
2022-11-29T08:39:09.143Z,3.53
2022-11-29T08:41:38.593Z,3.50
2022-11-29T08:44:09.467Z,4.40
2022-11-29T08:46:56.131Z,4.40
2022-11-29T08:49:25.275Z,3.90
2022-11-29T08:52:14.544Z,6.03
2022-11-29T08:54:42.799Z,4.53
2022-11-29T09:00:03.239Z,3.73
2022-11-29T09:02:32.428Z,4.70
2022-11-29T09:05:01.429Z,4.40
2022-11-29T09:07:30.789Z,3.80
2022-11-29T09:10:05.255Z,4.10
2022-11-29T09:12:34.357Z,4.40
2022-11-29T09:15:05.293Z,4.27
2022-11-29T09:17:34.489Z,3.90
2022-11-29T09:20:08.484Z,4.10
2022-11-29T09:22:37.703Z,3.30
2022-11-29T09:25:07.621Z,4.40
2022-11-29T09:27:36.715Z,3.67
2022-11-29T09:30:09.087Z,3.70
2022-11-29T09:32:37.968Z,3.87
2022-11-29T09:35:08.204Z,3.70
2022-11-29T09:37:37.402Z,3.03
2022-11-29T09:40:07.222Z,4.13
2022-11-29T09:42:48.932Z,3.93
2022-11-29T09:45:25.141Z,3.30
2022-11-29T09:48:13.630Z,4.30
2022-11-29T09:50:46.015Z,3.93
2022-11-29T09:53:24.102Z,4.10
2022-11-29T09:56:05.693Z,4.00
2022-11-29T09:58:40.832Z,3.53
2022-11-29T10:01:20.611Z,4.10
2022-11-29T10:03:55.001Z,3.77
2022-11-29T10:06:27.166Z,4.03
2022-11-29T10:09:00.491Z,3.70
2022-11-29T10:11:32.322Z,3.90
2022-11-29T10:14:04.081Z,4.40
2022-11-29T10:16:43.234Z,3.50
2022-11-29T10:19:17.159Z,4.00
2022-11-29T10:21:54.600Z,3.70
2022-11-29T10:24:24.330Z,4.07
2022-11-29T10:26:53.595Z,3.43
2022-11-29T10:29:23.509Z,4.10
2022-11-29T10:31:56.932Z,3.10
2022-11-29T10:34:27.594Z,3.57
2022-11-29T10:37:00.057Z,4.23
2022-11-29T10:39:34.860Z,3.50
2022-11-29T10:42:05.113Z,3.30
2022-11-29T10:44:36.869Z,3.50
2022-11-29T10:47:10.909Z,4.30
2022-11-29T10:49:41.068Z,3.97
2022-11-29T10:52:19.410Z,3.80
2022-11-29T10:54:48.969Z,4.10
2022-11-29T10:57:20.369Z,4.47
2022-11-29T11:00:01.344Z,4.60
2022-11-29T11:02:32.473Z,4.37
2022-11-29T11:05:02.319Z,4.50
2022-11-29T11:07:33.411Z,4.13
2022-11-29T11:10:03.072Z,4.57
2022-11-29T11:12:34.621Z,4.33
2022-11-29T11:15:21.338Z,4.53
2022-11-29T11:18:04.036Z,3.97
2022-11-29T11:20:34.669Z,3.97
2022-11-29T11:23:04.875Z,3.77
2022-11-29T11:25:35.494Z,4.20
2022-11-29T11:28:15.659Z,4.33
2022-11-29T11:30:51.977Z,3.97
2022-11-29T11:33:24.624Z,3.90
2022-11-29T11:36:10.248Z,5.13
2022-11-29T11:38:40.508Z,4.23
2022-11-29T11:41:19.154Z,4.27
2022-11-29T11:43:53.779Z,4.17
2022-11-29T11:46:25.696Z,3.40
2022-11-29T11:48:55.768Z,3.33
2022-11-29T11:51:26.378Z,3.50
2022-11-29T11:53:57.643Z,3.63
2022-11-29T11:56:27.954Z,3.40
2022-11-29T11:58:59.009Z,4.50
2022-11-29T12:01:30.995Z,3.93
2022-11-29T12:04:05.047Z,3.60
2022-11-29T12:06:39.702Z,3.43
2022-11-29T12:09:16.673Z,4.03
2022-11-29T12:11:49.332Z,2.83
2022-11-29T12:14:25.510Z,3.90
2022-11-29T12:17:03.443Z,3.53
2022-11-29T12:19:40.202Z,3.53
2022-11-29T12:22:15.433Z,4.00
2022-11-29T12:24:51.446Z,3.77
2022-11-29T12:27:20.617Z,4.47
2022-11-29T12:29:58.518Z,4.17
2022-11-29T12:32:48.815Z,4.33
2022-11-29T12:35:52.842Z,4.43
2022-11-29T12:38:43.125Z,4.13
2022-11-29T12:41:30.855Z,4.27
2022-11-29T12:44:09.584Z,5.50
2022-11-29T12:46:39.657Z,3.97
2022-11-29T12:49:17.498Z,3.60
2022-11-29T12:51:56.203Z,4.10
2022-11-29T12:54:37.303Z,4.50
2022-11-29T12:57:09.676Z,5.00
2022-11-29T13:00:01.112Z,3.83
2022-11-29T13:02:39.230Z,3.77
2022-11-29T13:05:16.490Z,4.43
2022-11-29T13:07:59.330Z,4.30
2022-11-29T13:10:38.442Z,4.20
2022-11-29T13:13:19.623Z,4.40
2022-11-29T13:15:53.677Z,4.20
2022-11-29T13:18:26.053Z,4.30
2022-11-29T13:20:59.321Z,3.40
2022-11-29T13:23:45.508Z,4.50
2022-11-29T13:26:47.822Z,4.67
2022-11-29T13:29:18.623Z,11.30
2022-11-29T13:31:48.932Z,13.30
2022-11-29T13:34:21.552Z,9.90
2022-11-29T13:37:00.941Z,5.63
2022-11-29T13:39:41.315Z,4.23
2022-11-29T13:42:17.799Z,3.30
2022-11-29T13:44:51.463Z,3.87
2022-11-29T13:47:20.846Z,3.70
2022-11-29T13:50:02.469Z,2.97
2022-11-29T13:52:39.463Z,3.50
2022-11-29T13:55:23.250Z,3.00
2022-11-29T13:58:15.331Z,3.30
2022-11-29T14:00:50.944Z,3.50
2022-11-29T14:03:30.086Z,3.03
2022-11-29T14:06:21.353Z,4.20
2022-11-29T14:09:21.641Z,3.80
2022-11-29T14:11:55.248Z,3.57
2022-11-29T14:14:27.240Z,3.40
2022-11-29T14:17:00.221Z,3.47
2022-11-29T14:19:33.716Z,4.67
2022-11-29T14:22:26.178Z,5.27
2022-11-29T14:25:50.414Z,4.37
2022-11-29T14:28:33.260Z,4.13
2022-11-29T14:31:02.716Z,4.47
2022-11-29T14:33:42.103Z,4.17
2022-11-29T14:36:27.394Z,3.77
2022-11-29T14:39:06.149Z,3.33
2022-11-29T14:41:44.821Z,3.90
2022-11-29T14:44:19.157Z,3.97
2022-11-29T14:46:48.097Z,3.40
2022-11-29T14:49:23.862Z,3.23
2022-11-29T14:52:10.305Z,3.80
2022-11-29T14:54:54.569Z,3.80
2022-11-29T14:58:15.039Z,3.83
2022-11-29T15:00:57.243Z,4.30
2022-11-29T15:03:30.955Z,3.90
2022-11-29T15:06:01.172Z,4.40
2022-11-29T15:08:34.937Z,3.60
2022-11-29T15:11:06.426Z,4.03
2022-11-29T15:13:36.179Z,3.90
2022-11-29T15:16:18.715Z,3.90
2022-11-29T15:19:23.919Z,3.60
2022-11-29T15:21:57.566Z,3.13
2022-11-29T15:24:28.754Z,4.20
2022-11-29T15:26:59.300Z,3.70
2022-11-29T15:29:30.031Z,3.60
2022-11-29T15:32:03.745Z,4.00
2022-11-29T15:34:34.676Z,3.23
2022-11-29T15:37:07.740Z,3.57
2022-11-29T15:39:39.738Z,3.20
2022-11-29T15:42:16.161Z,3.53
2022-11-29T15:44:47.791Z,3.63
2022-11-29T15:47:26.792Z,3.97
2022-11-29T15:49:56.085Z,3.20
2022-11-29T15:52:29.852Z,3.13
2022-11-29T15:55:01.649Z,3.00
2022-11-29T15:57:33.412Z,3.00
2022-11-29T16:00:03.835Z,3.70
2022-11-29T16:02:37.199Z,3.60
2022-11-29T16:05:15.007Z,4.10
2022-11-29T16:07:44.586Z,3.83
2022-11-29T16:10:15.859Z,3.43
2022-11-29T16:12:53.981Z,3.23
2022-11-29T16:15:29.653Z,3.30
2022-11-29T16:18:04.381Z,3.70
2022-11-29T16:20:36.136Z,3.87
2022-11-29T16:23:11.569Z,3.63
2022-11-29T16:25:57.450Z,4.17
2022-11-29T16:28:30.749Z,4.57
2022-11-29T16:31:00.199Z,3.93
2022-11-29T16:33:30.420Z,4.27
2022-11-29T16:36:07.040Z,4.00
2022-11-29T16:38:35.777Z,4.20
2022-11-29T16:41:07.313Z,3.33
2022-11-29T16:43:55.559Z,3.50
2022-11-29T16:46:48.017Z,3.53
2022-11-29T16:49:36.761Z,4.87
2022-11-29T16:52:24.493Z,3.40
2022-11-29T16:54:53.730Z,4.00
2022-11-29T16:57:22.666Z,3.60
2022-11-29T16:59:51.726Z,3.80
2022-11-29T17:02:20.555Z,3.80
2022-11-29T17:04:52.169Z,3.80
2022-11-29T17:07:24.021Z,3.97
2022-11-29T17:09:53.702Z,4.20
2022-11-29T17:12:22.526Z,4.63
2022-11-29T17:14:51.378Z,4.47
2022-11-29T17:17:20.784Z,4.47
2022-11-29T17:19:50.904Z,3.63
2022-11-29T17:22:19.591Z,3.90
2022-11-29T17:24:48.796Z,4.30
2022-11-29T17:27:17.676Z,4.80
2022-11-29T17:29:46.663Z,9.50
2022-11-29T17:32:15.396Z,9.17
2022-11-29T17:34:44.782Z,10.57
2022-11-29T17:37:15.501Z,6.10
2022-11-29T17:39:48.034Z,5.20
2022-11-29T17:42:17.284Z,4.90
2022-11-29T17:44:46.031Z,4.40
2022-11-29T17:47:17.452Z,5.20
2022-11-29T17:49:46.530Z,3.73
2022-11-29T17:52:16.824Z,4.80
2022-11-29T17:54:50.024Z,4.50
2022-11-29T17:57:19.987Z,4.30
2022-11-29T17:59:48.774Z,4.30
2022-11-29T18:02:17.937Z,4.57
2022-11-29T18:04:47.042Z,4.13
2022-11-29T18:07:18.178Z,4.10
2022-11-29T18:09:48.580Z,3.80
2022-11-29T18:12:18.216Z,4.90
2022-11-29T18:14:47.417Z,4.90
2022-11-29T18:17:16.921Z,3.93
2022-11-29T18:19:45.921Z,3.97
2022-11-29T18:22:16.750Z,4.13
2022-11-29T18:24:46.016Z,4.57
2022-11-29T18:27:15.563Z,4.20
2022-11-29T18:29:44.227Z,3.90
2022-11-29T18:32:16.064Z,5.07
2022-11-29T18:34:48.990Z,4.37
2022-11-29T18:37:33.936Z,4.70
2022-11-29T18:40:33.863Z,3.90
2022-11-29T18:43:02.876Z,3.43
2022-11-29T18:45:31.971Z,4.17
2022-11-29T18:48:00.967Z,3.87
2022-11-29T18:50:30.985Z,3.53
2022-11-29T18:53:01.187Z,3.53
2022-11-29T18:55:30.375Z,4.37
2022-11-29T18:58:01.726Z,3.90
2022-11-29T19:00:36.418Z,3.50
2022-11-29T19:03:17.869Z,3.40
2022-11-29T19:05:52.144Z,3.40
2022-11-29T19:08:22.848Z,3.00
2022-11-29T19:10:51.877Z,3.53
2022-11-29T19:13:20.809Z,3.77
2022-11-29T19:15:53.846Z,4.10
2022-11-29T19:18:24.326Z,4.00
2022-11-29T19:20:54.448Z,3.80
2022-11-29T19:23:25.084Z,3.70
2022-11-29T19:25:54.049Z,4.37
2022-11-29T19:28:22.851Z,3.87
2022-11-29T19:30:55.875Z,3.70
2022-11-29T19:33:49.013Z,4.13
2022-11-29T19:36:19.653Z,4.33
2022-11-29T19:38:53.772Z,3.60
2022-11-29T19:41:24.290Z,5.20
2022-11-29T19:43:55.967Z,4.20
2022-11-29T19:46:26.943Z,3.90
2022-11-29T19:48:57.835Z,3.40
2022-11-29T19:51:27.749Z,3.70
2022-11-29T19:53:59.810Z,3.57
2022-11-29T19:56:30.260Z,3.60
2022-11-29T19:58:59.994Z,3.53
2022-11-29T20:01:41.800Z,3.60
2022-11-29T20:04:18.008Z,4.00
2022-11-29T20:06:47.679Z,3.47
2022-11-29T20:09:18.609Z,4.20
2022-11-29T20:11:49.045Z,3.70
2022-11-29T20:14:21.050Z,4.27
2022-11-29T20:16:49.769Z,5.03
2022-11-29T20:19:19.142Z,4.17
2022-11-29T20:21:49.472Z,5.13
2022-11-29T20:24:20.610Z,3.50
2022-11-29T20:26:50.679Z,4.30
2022-11-29T20:29:21.961Z,4.00
2022-11-29T20:31:51.474Z,4.50
2022-11-29T20:34:21.201Z,4.20
2022-11-29T20:37:13.229Z,4.10
2022-11-29T20:39:48.220Z,4.20
2022-11-29T20:43:01.861Z,3.13
2022-11-29T20:45:31.352Z,5.30
2022-11-29T20:48:03.637Z,4.50
2022-11-29T20:50:34.167Z,4.87
2022-11-29T20:53:17.034Z,3.90
2022-11-29T20:55:57.066Z,4.23
2022-11-29T20:58:26.563Z,4.37
2022-11-29T21:00:56.683Z,4.20
2022-11-29T21:03:26.867Z,5.43
2022-11-29T21:05:56.956Z,5.00
2022-11-29T21:08:27.587Z,5.60
2022-11-29T21:11:03.440Z,4.10
2022-11-29T21:13:33.254Z,4.80
2022-11-29T21:16:02.914Z,4.30
2022-11-29T21:18:39.229Z,4.50
2022-11-29T21:21:18.160Z,5.07
2022-11-29T21:23:53.965Z,5.30
2022-11-29T21:26:29.879Z,5.17
2022-11-29T21:29:07.054Z,4.53
2022-11-29T21:31:36.722Z,3.83
2022-11-29T21:34:05.656Z,4.17
2022-11-29T21:36:34.858Z,4.97
2022-11-29T21:39:05.492Z,4.37
2022-11-29T21:41:36.478Z,3.93
2022-11-29T21:44:07.535Z,4.30
2022-11-29T21:46:40.619Z,3.83
2022-11-29T21:49:14.265Z,4.47
2022-11-29T21:51:43.158Z,3.60
2022-11-29T21:54:11.925Z,3.50
2022-11-29T21:56:42.365Z,3.77
2022-11-29T21:59:11.370Z,4.63
2022-11-29T22:01:40.641Z,3.33
2022-11-29T22:04:09.868Z,3.63
2022-11-29T22:06:39.374Z,3.77
2022-11-29T22:09:11.522Z,4.23
2022-11-29T22:11:43.177Z,4.10
2022-11-29T22:14:16.402Z,4.33
2022-11-29T22:16:47.833Z,3.97
2022-11-29T22:19:18.156Z,3.73
2022-11-29T22:21:48.226Z,3.87
2022-11-29T22:24:18.888Z,4.60
2022-11-29T22:26:49.363Z,3.60
2022-11-29T22:29:18.754Z,3.77
2022-11-29T22:31:50.247Z,4.47
2022-11-29T22:34:19.307Z,4.23
2022-11-29T22:36:48.197Z,3.47
2022-11-29T22:39:17.282Z,4.17
2022-11-29T22:41:52.224Z,3.57
2022-11-29T22:44:24.804Z,3.83
2022-11-29T22:46:53.891Z,4.43
2022-11-29T22:49:23.098Z,4.17
2022-11-29T22:51:52.480Z,4.20
2022-11-29T22:54:21.271Z,4.20
2022-11-29T22:56:50.495Z,4.23
2022-11-29T22:59:19.257Z,3.63
2022-11-29T23:01:49.917Z,3.70
2022-11-29T23:04:18.581Z,4.30
2022-11-29T23:06:47.678Z,4.17
2022-11-29T23:09:19.993Z,4.00
2022-11-29T23:11:53.347Z,3.90
2022-11-29T23:14:23.385Z,4.13
2022-11-29T23:16:53.841Z,4.80
2022-11-29T23:19:22.805Z,4.13
2022-11-29T23:21:52.109Z,3.80
2022-11-29T23:24:20.898Z,4.63
2022-11-29T23:26:49.931Z,4.27
2022-11-29T23:29:20.581Z,4.43
2022-11-29T23:31:50.706Z,4.43
2022-11-29T23:34:20.770Z,3.50
2022-11-29T23:36:52.956Z,4.00
2022-11-29T23:39:21.971Z,4.70
2022-11-29T23:41:50.532Z,4.60
2022-11-29T23:44:19.303Z,3.93
2022-11-29T23:46:48.502Z,3.23
2022-11-29T23:49:17.903Z,3.90
2022-11-29T23:51:48.331Z,4.00
2022-11-29T23:54:17.068Z,4.67
2022-11-29T23:56:48.651Z,4.03
2022-11-29T23:59:17.670Z,3.20
